Time;durP1;ratioP1;P1;durP2;ratioP2;P2;SDS_P1;SDS_P2;PMS_P1;PMS_P2;Temp;Humidity;BMP_temperature;BMP_pressure;BME280_temperature;BME280_humidity;BME280_pressure;Samples;Min_cycle;Max_cycle;Signal;HPM_P1;HPM_P2
2022/01/21 00:09:47;;;;;;;0.10;0.00;;;-0.30;70.80;;;;;;21071606;28;20093;-46
2022/01/21 00:30:02;;;;;;;0.17;0.00;;;-0.40;71.40;;;;;;21069920;28;20055;-44
2022/01/21 00:30:14;;;;;;;0.20;0.00;;;-0.50;71.30;;;;;;21070536;28;20032;-44
2022/01/21 00:40:23;;;;;;;0.00;0.00;;;-0.50;70.90;;;;;;21070745;28;20475;-47
2022/01/21 00:50:26;;;;;;;0.20;0.00;;;-0.40;70.50;;;;;;21068771;28;20059;-46
2022/01/21 01:00:31;;;;;;;6.18;0.28;;;-0.60;71.60;;;;;;21068059;28;20109;-45
2022/01/21 01:10:58;;;;;;;0.10;0.00;;;-0.70;71.20;;;;;;21067291;28;20032;-49
2022/01/21 01:21:00;;;;;;;0.10;0.00;;;-0.60;71.30;;;;;;21066989;28;20556;-47
2022/01/21 01:31:03;;;;;;;0.00;0.00;;;-0.60;71.30;;;;;;21068185;28;20036;-45
2022/01/21 01:41:10;;;;;;;0.00;0.00;;;-0.70;71.70;;;;;;21066499;28;20036;-43
2022/01/21 01:51:13;;;;;;;0.13;0.00;;;-0.70;72.70;;;;;;21065703;28;20031;-45
2022/01/21 02:01:18;;;;;;;0.00;0.00;;;-0.80;73.70;;;;;;21048429;28;20172;-46
2022/01/21 02:11:21;;;;;;;0.20;0.00;;;-0.80;73.70;;;;;;21051550;28;20066;-44
2022/01/21 02:21:30;;;;;;;0.10;0.00;;;-0.90;74.30;;;;;;21115469;28;20032;-45
2022/01/21 02:31:36;;;;;;;0.00;0.00;;;-1.00;74.40;;;;;;21131827;28;20088;-47
2022/01/21 02:41:38;;;;;;;0.00;0.00;;;-1.00;75.20;;;;;;21140564;28;20032;-44
2022/01/21 02:51:42;;;;;;;0.00;0.00;;;-1.10;75.00;;;;;;21145491;28;20032;-45
2022/01/21 03:01:45;;;;;;;0.80;0.00;;;-1.20;75.40;;;;;;21127964;28;20548;-46
2022/01/21 03:11:48;;;;;;;0.52;0.03;;;-1.30;75.50;;;;;;21127258;28;20056;-44
2022/01/21 03:21:54;;;;;;;0.00;0.00;;;-1.30;75.30;;;;;;21143072;28;20036;-45
2022/01/21 03:31:57;;;;;;;0.13;0.00;;;-1.40;76.10;;;;;;21142345;28;20373;-46
2022/01/21 03:42:00;;;;;;;0.00;0.00;;;-1.50;75.20;;;;;;21141846;28;20115;-46
2022/01/21 03:52:05;;;;;;;0.22;0.00;;;-1.50;74.90;;;;;;21123683;28;20024;-44
2022/01/21 04:02:07;;;;;;;0.75;0.00;;;-1.60;75.40;;;;;;21122974;28;20065;-45
2022/01/21 04:12:11;;;;;;;0.17;0.00;;;-1.60;74.80;;;;;;21138859;28;20124;-44
2022/01/21 04:22:15;;;;;;;0.10;0.00;;;-1.60;74.80;;;;;;21138009;28;20096;-46
2022/01/21 04:32:21;;;;;;;0.15;0.00;;;-1.70;75.40;;;;;;21137595;28;20032;-46
2022/01/21 04:52:46;;;;;;;0.00;0.00;;;-1.80;74.30;;;;;;21135772;28;20587;-48
2022/01/21 05:03:13;;;;;;;0.08;0.00;;;-1.90;73.70;;;;;;21125322;28;20040;-45
2022/01/21 05:13:18;;;;;;;4.53;0.00;;;-1.90;73.30;;;;;;21126722;28;20051;-45
2022/01/21 05:23:23;;;;;;;0.00;0.00;;;-2.00;73.50;;;;;;21134138;28;20044;-45
2022/01/21 05:33:27;;;;;;;0.00;0.00;;;-2.00;72.30;;;;;;21133625;28;20035;-44
2022/01/21 05:43:49;;;;;;;0.35;0.00;;;-1.90;71.50;;;;;;21133241;28;20555;-45
2022/01/21 05:54:28;;;;;;;0.08;0.00;;;-2.00;71.60;;;;;;20710397;28;20492;-44
2022/01/21 06:04:51;;;;;;;0.38;0.00;;;-2.00;71.10;;;;;;20710118;28;20556;-44
2022/01/21 06:14:53;;;;;;;0.65;0.10;;;-2.10;70.90;;;;;;20717550;28;20049;-43
2022/01/21 06:24:59;;;;;;;0.00;0.00;;;-2.30;72.00;;;;;;20908030;28;20090;-45
2022/01/21 06:35:03;;;;;;;2.92;0.00;;;-2.30;71.10;;;;;;21081013;28;20039;-44
2022/01/21 06:45:06;;;;;;;0.00;0.00;;;-2.30;70.30;;;;;;21146059;28;20043;-44
2022/01/21 06:55:09;;;;;;;0.10;0.00;;;-2.30;70.10;;;;;;21145554;28;20107;-44
2022/01/21 07:05:12;;;;;;;0.00;0.00;;;-2.30;69.80;;;;;;21146080;28;20027;-43
2022/01/21 07:15:19;;;;;;;3.03;0.10;;;-2.20;69.00;;;;;;21143313;28;20548;-44
2022/01/21 07:25:22;;;;;;;0.00;0.00;;;-2.30;69.60;;;;;;21142382;28;20032;-46
2022/01/21 07:35:25;;;;;;;0.10;0.00;;;-2.20;69.30;;;;;;21141981;28;20032;-46
2022/01/21 07:45:28;;;;;;;0.30;0.00;;;-2.20;69.20;;;;;;21141735;28;20027;-45
2022/01/21 07:55:31;;;;;;;0.00;0.00;;;-2.00;69.60;;;;;;21140732;28;20031;-44
2022/01/21 08:05:34;;;;;;;0.38;0.10;;;-1.70;68.50;;;;;;21139504;28;20031;-44
2022/01/21 08:15:37;;;;;;;0.00;0.00;;;-1.30;68.30;;;;;;21138829;28;20329;-46
2022/01/21 08:25:40;;;;;;;0.25;0.15;;;-1.10;66.80;;;;;;21138213;28;20044;-44
2022/01/21 08:35:43;;;;;;;0.28;0.03;;;-0.90;65.90;;;;;;21136351;28;20092;-43
2022/01/21 08:45:47;;;;;;;0.00;0.00;;;-0.60;65.10;;;;;;21136683;28;20064;-45
2022/01/21 08:55:50;;;;;;;0.10;0.00;;;-0.30;64.90;;;;;;21135606;28;20454;-46
2022/01/21 09:05:53;;;;;;;0.30;0.10;;;-0.20;64.70;;;;;;21135175;28;20437;-43
2022/01/21 09:15:59;;;;;;;0.52;0.10;;;0.00;63.30;;;;;;21134439;28;20055;-43
2022/01/21 09:26:02;;;;;;;0.22;0.10;;;0.20;62.70;;;;;;21134237;28;20058;-47
2022/01/21 09:36:05;;;;;;;4.15;0.10;;;0.10;63.10;;;;;;21133587;28;20036;-46
2022/01/21 09:46:08;;;;;;;0.10;0.03;;;0.50;61.90;;;;;;21120135;28;20031;-43
2022/01/21 09:56:14;;;;;;;0.30;0.10;;;0.50;61.00;;;;;;21150003;28;20036;-44
2022/01/21 10:06:21;;;;;;;0.00;0.00;;;0.80;60.30;;;;;;21149377;28;20035;-45
2022/01/21 10:16:24;;;;;;;1.48;0.10;;;0.80;59.40;;;;;;21148707;28;20044;-44
2022/01/21 10:26:27;;;;;;;0.20;0.10;;;1.10;60.10;;;;;;21148280;28;20092;-43
2022/01/21 10:36:34;;;;;;;0.52;0.10;;;1.30;59.90;;;;;;21146505;28;20108;-47
2022/01/21 10:46:40;;;;;;;1.05;0.00;;;1.70;57.20;;;;;;20986019;28;20057;-44
2022/01/21 10:57:02;;;;;;;1.55;0.20;;;1.80;58.40;;;;;;20967764;28;20048;-44
2022/01/21 11:07:04;;;;;;;0.50;0.10;;;1.90;57.90;;;;;;20967828;28;20045;-44
2022/01/21 11:17:15;;;;;;;0.50;0.20;;;2.20;58.20;;;;;;20983900;28;20408;-46
2022/01/21 11:27:19;;;;;;;0.30;0.10;;;2.60;58.80;;;;;;21058694;28;20089;-44
2022/01/21 11:37:24;;;;;;;2.83;0.10;;;3.40;58.80;;;;;;21074535;28;20081;-44
2022/01/21 11:47:29;;;;;;;0.20;0.00;;;3.80;54.10;;;;;;21077147;28;20036;-45
2022/01/21 11:57:32;;;;;;;0.10;0.00;;;3.60;54.20;;;;;;21140771;28;20044;-45
2022/01/21 12:07:35;;;;;;;3.50;0.10;;;3.70;55.20;;;;;;21139716;28;20035;-46
2022/01/21 12:17:47;;;;;;;1.65;0.50;;;3.50;55.00;;;;;;21138382;28;20104;-46
2022/01/21 12:28:17;;;;;;;2.92;1.00;;;3.80;54.90;;;;;;21138241;28;20040;-46
2022/01/21 12:48:34;;;;;;;4.97;1.98;;;3.90;58.30;;;;;;21136928;28;20035;-46
2022/01/21 12:58:58;;;;;;;4.95;2.38;;;3.70;58.20;;;;;;20876330;28;20163;-45
2022/01/21 13:09:10;;;;;;;6.00;2.90;;;3.80;60.70;;;;;;20876156;28;20061;-44
2022/01/21 13:19:13;;;;;;;5.68;2.53;;;4.00;60.40;;;;;;20874853;28;20135;-44
2022/01/21 13:29:15;;;;;;;7.38;3.05;;;3.30;61.00;;;;;;20927434;28;20442;-46
2022/01/21 13:39:21;;;;;;;5.93;3.05;;;2.80;62.50;;;;;;21133396;28;20032;-44
2022/01/21 13:49:27;;;;;;;15.27;6.47;;;2.30;64.10;;;;;;21133550;28;20032;-44
2022/01/21 13:59:32;;;;;;;17.45;8.85;;;1.70;72.50;;;;;;21132833;28;20399;-44
2022/01/21 14:09:37;;;;;;;18.48;8.90;;;1.50;84.70;;;;;;21132597;28;20073;-44
2022/01/21 14:19:42;;;;;;;24.75;12.45;;;1.20;89.20;;;;;;21064740;28;20491;-45
2022/01/21 14:29:52;;;;;;;21.13;11.07;;;1.10;92.70;;;;;;21064566;28;20058;-48
2022/01/21 14:39:55;;;;;;;19.90;10.68;;;0.90;93.30;;;;;;21077323;28;20040;-48
2022/01/21 14:50:11;;;;;;;21.65;10.98;;;0.50;94.50;;;;;;21078550;28;20028;-45
2022/01/21 15:00:29;;;;;;;22.77;11.00;;;0.20;95.90;;;;;;21078651;28;20035;-47
2022/01/21 15:20:38;;;;;;;28.35;13.18;;;-0.90;97.80;;;;;;21076681;28;20357;-45
2022/01/21 15:30:40;;;;;;;26.55;11.73;;;-1.40;99.40;;;;;;21075449;28;20180;-44
2022/01/21 15:40:43;;;;;;;29.08;14.00;;;-1.80;99.90;;;;;;21074806;28;20035;-47
2022/01/21 15:50:48;;;;;;;25.63;12.38;;;-2.20;99.90;;;;;;21073764;28;20040;-45
2022/01/21 16:00:51;;;;;;;23.45;11.38;;;-2.70;99.90;;;;;;21072864;28;20040;-44
2022/01/21 16:10:54;;;;;;;8.93;4.15;;;-3.10;99.90;;;;;;21072474;28;20483;-46
2022/01/21 16:20:57;;;;;;;12.20;5.80;;;-3.30;98.10;;;;;;21072274;28;20112;-45
2022/01/21 16:31:00;;;;;;;8.63;2.92;;;-3.60;99.70;;;;;;21070544;28;20436;-47
2022/01/21 16:41:02;;;;;;;3.75;1.75;;;-3.80;97.00;;;;;;21069506;28;20061;-44
2022/01/21 16:51:06;;;;;;;2.13;0.70;;;-4.10;97.10;;;;;;21069317;28;20076;-47
2022/01/21 17:01:10;;;;;;;2.22;0.70;;;-4.30;96.30;;;;;;21068957;28;20032;-44
2022/01/21 17:11:13;;;;;;;3.40;1.52;;;-4.20;95.10;;;;;;21067845;28;20043;-44
2022/01/21 17:21:16;;;;;;;3.13;1.35;;;-4.40;95.70;;;;;;21067070;28;20044;-46
2022/01/21 17:31:23;;;;;;;2.78;1.40;;;-4.60;95.10;;;;;;21066783;28;20139;-44
2022/01/21 17:41:25;;;;;;;3.90;1.73;;;-4.60;94.80;;;;;;21066958;28;20539;-45
2022/01/21 17:51:28;;;;;;;2.53;0.80;;;-4.70;94.80;;;;;;21066118;28;20040;-44
2022/01/21 18:01:32;;;;;;;3.90;1.25;;;-4.70;95.20;;;;;;21065835;28;20108;-44
2022/01/21 18:11:36;;;;;;;2.95;1.13;;;-4.60;94.40;;;;;;21078495;28;20463;-47
2022/01/21 18:21:39;;;;;;;2.88;1.05;;;-4.50;93.10;;;;;;21148491;28;20093;-45
2022/01/21 18:31:42;;;;;;;2.20;0.77;;;-4.30;91.80;;;;;;21147531;28;20084;-47
2022/01/21 18:41:45;;;;;;;1.67;0.65;;;-4.10;89.20;;;;;;21146442;28;20420;-46
2022/01/21 18:51:50;;;;;;;1.88;0.82;;;-4.10;89.00;;;;;;21146342;28;20031;-46
2022/01/21 19:01:54;;;;;;;2.53;0.70;;;-3.60;84.30;;;;;;21145231;28;20441;-47
2022/01/21 19:11:56;;;;;;;2.65;1.00;;;-3.00;84.00;;;;;;21144002;28;20055;-45
2022/01/21 19:22:05;;;;;;;2.97;1.00;;;-3.50;84.70;;;;;;21143445;28;20432;-45
2022/01/21 19:32:13;;;;;;;3.70;1.35;;;-3.20;85.00;;;;;;21142452;28;20032;-57
2022/01/21 19:42:16;;;;;;;3.45;1.45;;;-2.90;83.70;;;;;;21141093;28;20104;-52
2022/01/21 19:52:18;;;;;;;6.15;1.95;;;-2.60;82.90;;;;;;21141392;28;20039;-52
2022/01/21 20:12:55;;;;;;;5.40;1.85;;;-2.80;84.60;;;;;;20715377;28;20139;-50
2022/01/21 20:22:58;;;;;;;4.93;1.77;;;-2.70;84.20;;;;;;20715018;28;20077;-51
2022/01/21 20:33:02;;;;;;;4.03;1.65;;;-2.60;83.50;;;;;;20752813;28;20081;-50
2022/01/21 20:43:11;;;;;;;3.40;0.90;;;-2.70;82.80;;;;;;20791315;28;20071;-54
2022/01/21 20:53:16;;;;;;;4.22;0.90;;;-2.60;82.80;;;;;;21069927;28;20032;-53
2022/01/21 21:03:20;;;;;;;1.17;0.32;;;-2.60;79.70;;;;;;21068011;28;20036;-58
2022/01/21 21:13:27;;;;;;;3.47;0.68;;;-2.50;79.20;;;;;;21085970;28;20081;-55
2022/01/21 22:16:25;;;;;;;0.77;0.10;;;-2.40;77.00;;;;;;21147837;28;20035;-44
2022/01/21 23:06:36;;;;;;;0.85;0.20;;;-2.30;77.40;;;;;;21144347;28;20112;-44
2022/01/21 23:16:40;;;;;;;0.10;0.00;;;-2.30;77.80;;;;;;21126307;28;20048;-44
2022/01/21 23:26:44;;;;;;;0.93;0.20;;;-2.50;78.30;;;;;;21142954;28;20349;-46
2022/01/21 23:36:54;;;;;;;0.35;0.10;;;-2.50;78.80;;;;;;21141742;28;20040;-44
2022/01/21 23:46:59;;;;;;;0.73;0.10;;;-2.30;78.70;;;;;;21141168;28;20395;-44
2022/01/21 23:57:04;;;;;;;0.20;0.00;;;-2.20;78.20;;;;;;21140238;28;20444;-46
